createdAt,value
2022-12-04T00:02:36.672Z,17.65
2022-12-04T00:05:38.710Z,17.63
2022-12-04T00:08:41.696Z,17.64
2022-12-04T00:11:43.720Z,17.64
2022-12-04T00:15:23.395Z,17.59
2022-12-04T00:18:07.822Z,17.60
2022-12-04T00:21:12.483Z,17.61
2022-12-04T00:24:14.507Z,17.56
2022-12-04T00:27:16.526Z,17.54
2022-12-04T00:30:18.602Z,17.54
2022-12-04T00:33:20.645Z,17.53
2022-12-04T00:36:25.041Z,17.51
2022-12-04T00:39:27.108Z,17.50
2022-12-04T00:42:29.124Z,17.49
2022-12-04T00:45:31.238Z,17.48
2022-12-04T00:48:33.415Z,17.45
2022-12-04T00:51:35.422Z,17.49
2022-12-04T00:54:37.481Z,17.46
2022-12-04T00:57:39.570Z,17.44
2022-12-04T01:00:43.211Z,17.44
2022-12-04T01:03:46.192Z,17.41
2022-12-04T01:06:48.255Z,17.40
2022-12-04T01:09:50.284Z,17.39
2022-12-04T01:12:55.362Z,17.40
2022-12-04T01:15:57.451Z,17.39
2022-12-04T01:18:59.678Z,17.38
2022-12-04T01:22:01.918Z,17.35
2022-12-04T01:25:04.292Z,17.35
2022-12-04T01:28:06.472Z,17.36
2022-12-04T01:31:11.814Z,17.32
2022-12-04T01:34:14.082Z,17.32
2022-12-04T01:37:16.333Z,17.32
2022-12-04T01:40:18.389Z,17.31
2022-12-04T01:43:21.411Z,17.29
2022-12-04T01:46:23.467Z,17.28
2022-12-04T01:49:45.158Z,17.25
2022-12-04T01:52:47.315Z,17.24
2022-12-04T01:55:49.695Z,17.24
2022-12-04T01:58:54.945Z,17.25
2022-12-04T02:02:03.775Z,17.22
2022-12-04T02:05:09.202Z,17.21
2022-12-04T02:08:11.413Z,17.19
2022-12-04T02:11:25.338Z,17.17
2022-12-04T02:14:54.317Z,17.16
2022-12-04T02:18:09.025Z,17.16
2022-12-04T02:21:36.770Z,17.16
2022-12-04T02:24:49.832Z,17.13
2022-12-04T02:28:00.779Z,17.11
2022-12-04T02:31:04.232Z,17.11
2022-12-04T02:34:16.302Z,17.08
2022-12-04T02:37:40.553Z,17.09
2022-12-04T02:40:58.489Z,17.08
2022-12-04T02:44:13.624Z,17.08
2022-12-04T02:47:19.934Z,17.05
2022-12-04T02:50:23.666Z,17.05
2022-12-04T02:53:33.572Z,17.05
2022-12-04T02:56:42.095Z,17.04
2022-12-04T02:59:46.839Z,17.02
2022-12-04T03:02:54.418Z,17.00
2022-12-04T03:06:08.693Z,17.00
2022-12-04T03:09:21.731Z,16.98
2022-12-04T03:12:43.865Z,16.96
2022-12-04T03:15:54.043Z,16.95
2022-12-04T03:19:05.619Z,16.94
2022-12-04T03:22:14.374Z,16.92
2022-12-04T03:25:16.683Z,16.91
2022-12-04T03:28:29.895Z,16.90
2022-12-04T03:32:13.916Z,16.90
2022-12-04T03:35:30.621Z,16.89
2022-12-04T03:38:44.679Z,16.88
2022-12-04T03:42:10.738Z,16.85
2022-12-04T03:45:24.968Z,16.85
2022-12-04T03:48:38.461Z,16.84
2022-12-04T03:52:00.530Z,16.84
2022-12-04T03:55:13.445Z,16.81
2022-12-04T03:58:21.223Z,16.79
2022-12-04T04:01:28.923Z,16.81
2022-12-04T04:04:41.218Z,16.77
2022-12-04T04:07:52.623Z,16.78
2022-12-04T04:11:08.453Z,16.77
2022-12-04T04:14:42.194Z,16.75
2022-12-04T04:18:05.559Z,16.75
2022-12-04T04:21:26.866Z,16.75
2022-12-04T04:24:42.975Z,16.71
2022-12-04T04:27:55.321Z,16.71
2022-12-04T04:31:21.256Z,16.71
2022-12-04T04:34:23.376Z,16.71
2022-12-04T04:37:35.190Z,16.67
2022-12-04T04:40:46.603Z,16.66
2022-12-04T04:43:58.739Z,16.67
2022-12-04T04:47:03.693Z,16.66
2022-12-04T04:50:10.580Z,16.65
2022-12-04T04:53:18.988Z,16.64
2022-12-04T04:56:21.785Z,16.63
2022-12-04T04:59:23.856Z,16.62
2022-12-04T05:02:27.002Z,16.60
2022-12-04T05:05:29.113Z,16.60
2022-12-04T05:08:31.218Z,16.59
2022-12-04T05:11:33.420Z,16.60
2022-12-04T05:14:35.509Z,16.57
2022-12-04T05:17:37.580Z,16.55
2022-12-04T05:20:40.606Z,16.54
2022-12-04T05:23:42.701Z,16.52
2022-12-04T05:26:44.850Z,16.50
2022-12-04T05:29:46.949Z,16.51
2022-12-04T05:32:49.013Z,16.51
2022-12-04T05:35:58.164Z,16.50
2022-12-04T05:39:00.208Z,16.51
2022-12-04T05:42:02.227Z,16.49
2022-12-04T05:45:04.670Z,16.50
2022-12-04T05:48:06.832Z,16.49
2022-12-04T05:51:10.132Z,16.49
2022-12-04T05:54:12.383Z,16.48
2022-12-04T05:57:14.523Z,16.46
2022-12-04T06:00:18.051Z,16.49
2022-12-04T06:03:20.247Z,16.48
2022-12-04T06:06:25.379Z,16.58
2022-12-04T06:09:27.372Z,16.54
2022-12-04T06:12:30.457Z,16.57
2022-12-04T06:15:36.205Z,16.57
2022-12-04T06:18:38.493Z,16.55
2022-12-04T06:21:42.866Z,16.56
2022-12-04T06:24:45.049Z,16.57
2022-12-04T06:27:47.071Z,16.58
2022-12-04T06:30:49.124Z,16.79
2022-12-04T06:33:52.998Z,17.02
2022-12-04T06:36:55.062Z,17.09
2022-12-04T06:39:57.360Z,17.15
2022-12-04T06:42:59.664Z,17.22
2022-12-04T06:46:03.655Z,17.26
2022-12-04T06:49:06.035Z,17.33
2022-12-04T06:52:08.119Z,17.46
2022-12-04T06:55:10.158Z,17.49
2022-12-04T06:58:12.208Z,17.49
2022-12-04T07:01:17.684Z,17.56
2022-12-04T07:04:20.156Z,17.67
2022-12-04T07:07:22.265Z,17.75
2022-12-04T07:10:24.276Z,17.75
2022-12-04T07:13:26.277Z,17.77
2022-12-04T07:16:29.285Z,17.84
2022-12-04T07:19:31.488Z,17.97
2022-12-04T07:22:33.510Z,18.03
2022-12-04T07:25:39.645Z,18.02
2022-12-04T07:28:42.011Z,18.00
2022-12-04T07:31:44.584Z,18.09
2022-12-04T07:34:46.887Z,18.15
2022-12-04T07:37:49.139Z,18.25
2022-12-04T07:40:51.294Z,18.24
2022-12-04T07:43:54.123Z,18.22
2022-12-04T07:46:56.197Z,18.24
2022-12-04T07:49:58.437Z,18.29
2022-12-04T07:53:00.570Z,18.40
2022-12-04T07:56:04.098Z,18.43
2022-12-04T07:59:06.205Z,18.42
2022-12-04T08:02:08.263Z,18.37
2022-12-04T08:05:10.325Z,18.38
2022-12-04T08:08:12.464Z,18.46
2022-12-04T08:11:20.283Z,18.51
2022-12-04T08:14:22.292Z,18.50
2022-12-04T08:17:24.534Z,18.47
2022-12-04T08:20:26.645Z,18.51
2022-12-04T08:23:28.701Z,18.58
2022-12-04T08:26:31.920Z,18.58
2022-12-04T08:29:34.118Z,18.58
2022-12-04T08:32:36.132Z,18.66
2022-12-04T08:35:38.135Z,18.73
2022-12-04T08:38:40.645Z,18.89
2022-12-04T08:41:42.820Z,18.83
2022-12-04T08:44:45.561Z,18.84
2022-12-04T08:47:52.200Z,18.81
2022-12-04T08:50:54.829Z,18.93
2022-12-04T08:53:59.166Z,18.99
2022-12-04T08:57:01.227Z,19.09
2022-12-04T09:00:04.133Z,19.14
2022-12-04T09:03:06.337Z,19.21
2022-12-04T09:06:10.237Z,19.27
2022-12-04T09:09:12.948Z,19.38
2022-12-04T09:12:14.967Z,19.32
2022-12-04T09:15:17.059Z,19.31
2022-12-04T09:18:19.100Z,19.40
2022-12-04T09:21:22.831Z,19.46
2022-12-04T09:24:24.887Z,19.54
2022-12-04T09:27:27.101Z,19.60
2022-12-04T09:30:29.135Z,19.60
2022-12-04T09:33:31.922Z,19.57
2022-12-04T09:36:33.945Z,19.61
2022-12-04T09:39:35.940Z,19.72
2022-12-04T09:42:44.087Z,19.71
2022-12-04T09:45:51.216Z,19.63
2022-12-04T09:48:53.976Z,19.58
2022-12-04T09:52:01.749Z,19.70
2022-12-04T09:55:09.935Z,19.77
2022-12-04T09:58:20.872Z,19.75
2022-12-04T10:01:41.320Z,19.73
2022-12-04T10:04:43.441Z,19.37
2022-12-04T10:08:22.613Z,19.54
2022-12-04T10:11:34.164Z,19.70
2022-12-04T10:14:42.374Z,19.72
2022-12-04T10:17:53.219Z,19.81
2022-12-04T10:21:02.193Z,19.89
2022-12-04T10:24:33.445Z,19.98
2022-12-04T10:27:47.580Z,20.02
2022-12-04T10:30:53.967Z,20.02
2022-12-04T10:34:16.920Z,20.04
2022-12-04T10:37:19.212Z,20.11
2022-12-04T10:40:37.470Z,20.17
2022-12-04T10:43:48.396Z,20.10
2022-12-04T10:46:54.164Z,20.11
2022-12-04T10:50:03.234Z,20.17
2022-12-04T10:53:09.440Z,20.21
2022-12-04T10:56:18.054Z,20.24
2022-12-04T10:59:20.119Z,20.16
2022-12-04T11:02:26.910Z,20.19
2022-12-04T11:05:33.493Z,20.34
2022-12-04T11:08:50.308Z,20.45
2022-12-04T11:11:52.799Z,20.43
2022-12-04T11:15:01.900Z,20.42
2022-12-04T11:18:18.002Z,20.47
2022-12-04T11:21:27.517Z,20.53
2022-12-04T11:24:40.061Z,20.59
2022-12-04T11:27:45.406Z,20.60
2022-12-04T11:30:54.924Z,20.53
2022-12-04T11:34:06.768Z,20.55
2022-12-04T11:37:24.574Z,20.63
2022-12-04T11:40:27.810Z,20.70
2022-12-04T11:43:32.892Z,20.71
2022-12-04T11:46:35.050Z,20.64
2022-12-04T11:49:42.266Z,20.68
2022-12-04T11:52:59.068Z,20.76
2022-12-04T11:56:27.475Z,20.80
2022-12-04T11:59:47.371Z,20.80
2022-12-04T12:03:11.140Z,20.75
2022-12-04T12:06:35.038Z,20.80
2022-12-04T12:09:45.115Z,20.81
2022-12-04T12:12:49.950Z,20.76
2022-12-04T12:16:14.423Z,20.76
2022-12-04T12:19:22.219Z,20.75
2022-12-04T12:22:48.530Z,20.69
2022-12-04T12:26:10.936Z,20.66
2022-12-04T12:29:34.820Z,20.64
2022-12-04T12:33:20.118Z,20.56
2022-12-04T12:36:24.730Z,20.57
2022-12-04T12:39:41.459Z,20.53
2022-12-04T12:42:58.154Z,20.44
2022-12-04T12:46:06.225Z,20.40
2022-12-04T12:49:23.117Z,20.29
2022-12-04T12:52:37.919Z,20.24
2022-12-04T12:55:58.289Z,20.27
2022-12-04T12:59:05.683Z,20.24
2022-12-04T13:02:26.517Z,20.22
2022-12-04T13:05:34.773Z,20.22
2022-12-04T13:08:49.289Z,20.20
2022-12-04T13:12:00.195Z,20.17
2022-12-04T13:15:04.674Z,20.16
2022-12-04T13:18:09.228Z,20.12
2022-12-04T13:21:28.402Z,20.09
2022-12-04T13:24:48.530Z,20.06
2022-12-04T13:27:59.639Z,19.97
2022-12-04T13:31:13.066Z,19.89
2022-12-04T13:34:33.908Z,19.86
2022-12-04T13:38:03.779Z,19.85
2022-12-04T13:41:10.542Z,19.84
2022-12-04T13:44:19.822Z,19.81
2022-12-04T13:47:31.938Z,19.85
2022-12-04T13:50:35.996Z,19.83
2022-12-04T13:53:40.240Z,19.83
2022-12-04T13:56:55.300Z,19.85
2022-12-04T14:00:27.616Z,19.84
2022-12-04T14:03:47.281Z,19.82
2022-12-04T14:06:51.733Z,19.79
2022-12-04T14:09:55.582Z,19.71
2022-12-04T14:13:21.673Z,19.67
2022-12-04T14:16:28.915Z,19.66
2022-12-04T14:19:36.638Z,19.63
2022-12-04T14:22:42.972Z,19.65
2022-12-04T14:25:45.487Z,19.66
2022-12-04T14:28:48.838Z,19.68
2022-12-04T14:31:51.909Z,19.66
2022-12-04T14:34:55.223Z,19.62
2022-12-04T14:38:06.470Z,19.59
2022-12-04T14:41:08.530Z,19.58
2022-12-04T14:44:30.162Z,19.58
2022-12-04T14:47:42.608Z,19.55
2022-12-04T14:51:09.132Z,19.56
2022-12-04T14:54:35.011Z,19.52
2022-12-04T14:57:41.034Z,19.52
2022-12-04T15:00:51.119Z,19.52
2022-12-04T15:03:56.956Z,19.48
2022-12-04T15:07:00.840Z,19.51
2022-12-04T15:10:32.314Z,19.53
2022-12-04T15:13:40.930Z,19.46
2022-12-04T15:16:43.414Z,19.45
2022-12-04T15:19:45.845Z,19.45
2022-12-04T15:22:47.930Z,19.46
2022-12-04T15:25:55.648Z,19.47
2022-12-04T15:29:00.583Z,19.43
2022-12-04T15:32:06.941Z,19.46
2022-12-04T15:35:13.833Z,19.43
2022-12-04T15:38:16.142Z,19.41
2022-12-04T15:41:34.538Z,19.46
2022-12-04T15:44:37.158Z,19.50
2022-12-04T15:47:53.921Z,19.48
2022-12-04T15:51:05.439Z,19.48
2022-12-04T15:54:31.355Z,19.54
2022-12-04T15:57:39.210Z,19.54
2022-12-04T16:00:42.815Z,19.53
2022-12-04T16:03:49.281Z,19.56
2022-12-04T16:06:53.733Z,19.53
2022-12-04T16:10:03.311Z,19.51
2022-12-04T16:13:06.224Z,19.44
2022-12-04T16:16:12.401Z,19.10
2022-12-04T16:19:35.700Z,18.57
2022-12-04T16:22:40.440Z,18.36
2022-12-04T16:25:42.660Z,18.77
2022-12-04T16:28:45.344Z,18.99
2022-12-04T16:31:47.672Z,19.03
2022-12-04T16:34:49.850Z,19.03
2022-12-04T16:37:51.981Z,19.02
2022-12-04T16:40:54.206Z,19.02
2022-12-04T16:43:58.903Z,18.99
2022-12-04T16:47:01.176Z,18.96
2022-12-04T16:50:03.443Z,18.97
2022-12-04T16:53:05.537Z,18.95
2022-12-04T16:56:09.357Z,18.94
2022-12-04T16:59:12.332Z,18.98
2022-12-04T17:02:18.728Z,18.96
2022-12-04T17:05:24.015Z,18.96
2022-12-04T17:08:26.313Z,18.96
2022-12-04T17:11:28.387Z,18.96
2022-12-04T17:14:30.447Z,18.92
2022-12-04T17:17:32.613Z,18.87
2022-12-04T17:20:34.829Z,18.83
2022-12-04T17:23:37.454Z,18.84
2022-12-04T17:26:39.502Z,18.83
2022-12-04T17:29:41.566Z,18.81
2022-12-04T17:32:43.724Z,18.80
2022-12-04T17:35:45.846Z,18.80
2022-12-04T17:38:47.911Z,18.79
2022-12-04T17:41:49.961Z,18.78
2022-12-04T17:44:52.032Z,18.77
2022-12-04T17:47:54.118Z,18.78
2022-12-04T17:51:08.179Z,18.74
2022-12-04T17:54:12.031Z,18.74
2022-12-04T17:57:14.087Z,18.73
2022-12-04T18:00:16.361Z,18.73
2022-12-04T18:03:18.419Z,18.70
2022-12-04T18:06:24.364Z,18.69
2022-12-04T18:09:26.395Z,18.70
2022-12-04T18:12:28.455Z,18.68
2022-12-04T18:15:30.525Z,18.68
2022-12-04T18:18:33.206Z,18.67
2022-12-04T18:21:35.574Z,18.67
2022-12-04T18:24:37.662Z,18.66
2022-12-04T18:27:42.073Z,18.63
2022-12-04T18:30:44.479Z,18.65
2022-12-04T18:33:47.502Z,18.64
2022-12-04T18:36:49.805Z,18.61
2022-12-04T18:39:51.936Z,18.62
2022-12-04T18:42:53.959Z,18.59
2022-12-04T18:46:05.708Z,18.59
2022-12-04T18:49:10.047Z,18.58
2022-12-04T18:52:12.185Z,18.57
2022-12-04T18:55:14.358Z,18.58
2022-12-04T18:58:16.560Z,18.57
2022-12-04T19:01:19.617Z,18.56
2022-12-04T19:04:23.191Z,18.54
2022-12-04T19:07:25.260Z,18.53
2022-12-04T19:10:28.090Z,18.55
2022-12-04T19:13:30.297Z,18.53
2022-12-04T19:16:32.542Z,18.51
2022-12-04T19:19:34.634Z,18.51
2022-12-04T19:22:36.997Z,18.51
2022-12-04T19:25:39.058Z,18.50
2022-12-04T19:28:41.194Z,18.52
2022-12-04T19:31:43.385Z,18.50
2022-12-04T19:34:47.451Z,18.49
2022-12-04T19:37:52.954Z,18.47
2022-12-04T19:41:12.363Z,18.44
2022-12-04T19:44:46.920Z,18.46
2022-12-04T19:47:36.881Z,18.50
2022-12-04T19:50:38.915Z,18.52
2022-12-04T19:53:41.823Z,18.49
2022-12-04T19:56:46.296Z,18.52
2022-12-04T19:59:48.366Z,18.50
2022-12-04T20:02:50.440Z,18.52
2022-12-04T20:05:52.519Z,18.47
2022-12-04T20:09:00.290Z,18.43
2022-12-04T20:12:03.086Z,18.41
2022-12-04T20:15:05.465Z,18.38
2022-12-04T20:18:07.513Z,18.38
2022-12-04T20:21:11.287Z,18.38
2022-12-04T20:24:15.389Z,18.36
2022-12-04T20:27:17.510Z,18.37
2022-12-04T20:30:19.648Z,18.36
2022-12-04T20:33:21.699Z,18.35
2022-12-04T20:36:27.510Z,18.34
2022-12-04T20:39:29.857Z,18.34
2022-12-04T20:42:33.601Z,18.33
2022-12-04T20:45:35.903Z,18.33
2022-12-04T20:48:38.107Z,18.32
2022-12-04T20:51:43.340Z,18.32
2022-12-04T20:54:45.395Z,18.30
2022-12-04T20:57:47.445Z,18.30
2022-12-04T21:00:49.822Z,18.37
2022-12-04T21:03:53.070Z,18.37
2022-12-04T21:06:55.116Z,18.32
2022-12-04T21:09:58.946Z,18.33
2022-12-04T21:13:19.881Z,18.30
2022-12-04T21:16:22.818Z,18.29
2022-12-04T21:19:26.005Z,18.28
2022-12-04T21:22:28.093Z,18.27
2022-12-04T21:25:30.154Z,18.29
2022-12-04T21:28:32.734Z,18.27
2022-12-04T21:31:36.517Z,18.25
2022-12-04T21:34:38.594Z,18.29
2022-12-04T21:37:40.594Z,18.29
2022-12-04T21:40:42.862Z,18.28
2022-12-04T21:43:45.010Z,18.29
2022-12-04T21:46:47.940Z,18.25
2022-12-04T21:49:50.063Z,18.24
2022-12-04T21:52:54.495Z,18.25
2022-12-04T21:55:57.214Z,18.24
2022-12-04T21:58:59.259Z,18.22
2022-12-04T22:02:01.982Z,18.20
2022-12-04T22:05:04.377Z,18.17
2022-12-04T22:08:08.182Z,18.17
2022-12-04T22:11:12.139Z,18.17
2022-12-04T22:14:14.374Z,18.17
2022-12-04T22:17:16.393Z,18.19
2022-12-04T22:20:18.515Z,18.14
2022-12-04T22:23:20.740Z,18.12
2022-12-04T22:26:22.949Z,18.11
2022-12-04T22:29:49.160Z,18.09
2022-12-04T22:32:47.191Z,18.10
2022-12-04T22:35:49.256Z,18.07
2022-12-04T22:39:08.626Z,18.07
2022-12-04T22:42:11.293Z,18.05
2022-12-04T22:45:13.413Z,18.06
2022-12-04T22:48:15.570Z,18.06
2022-12-04T22:51:20.037Z,18.04
2022-12-04T22:54:22.105Z,18.04
2022-12-04T22:57:24.584Z,17.98
2022-12-04T23:00:26.727Z,17.98
2022-12-04T23:03:28.841Z,17.98
2022-12-04T23:06:32.599Z,17.95
2022-12-04T23:09:35.418Z,17.96
2022-12-04T23:12:37.570Z,17.98
2022-12-04T23:15:39.737Z,17.96
2022-12-04T23:18:42.818Z,17.94
2022-12-04T23:21:45.586Z,17.91
2022-12-04T23:24:47.682Z,17.92
2022-12-04T23:27:49.934Z,17.90
2022-12-04T23:30:52.096Z,17.90
2022-12-04T23:33:54.197Z,17.88
2022-12-04T23:36:56.250Z,17.88
2022-12-04T23:39:58.565Z,17.85
2022-12-04T23:43:01.080Z,17.85
2022-12-04T23:46:10.343Z,17.84
2022-12-04T23:49:13.173Z,17.81
2022-12-04T23:52:15.240Z,17.81
2022-12-04T23:55:17.405Z,17.81
2022-12-04T23:58:19.474Z,17.81
